sensor_id;sensor_type;location;lat;lon;timestamp;pressure;altitude;pressure_sealevel;temperature;humidity
6833;BME280;3454;42.654;23.378;2023-09-19T00:01:42;64755.63;;;17.01;98.25
6833;BME280;3454;42.654;23.378;2023-09-19T00:04:11;64756.16;;;17.01;98.50
6833;BME280;3454;42.654;23.378;2023-09-19T00:06:38;64742.41;;;16.89;98.94
6833;BME280;3454;42.654;23.378;2023-09-19T00:09:05;64765.88;;;17.08;97.19
6833;BME280;3454;42.654;23.378;2023-09-19T00:11:35;64763.13;;;17.05;97.86
6833;BME280;3454;42.654;23.378;2023-09-19T00:14:00;64744.28;;;16.93;98.83
6833;BME280;3454;42.654;23.378;2023-09-19T00:16:26;64758.19;;;17.01;98.65
6833;BME280;3454;42.654;23.378;2023-09-19T00:18:52;64738.75;;;16.88;99.97
6833;BME280;3454;42.654;23.378;2023-09-19T00:21:18;64747.34;;;16.93;99.90
6833;BME280;3454;42.654;23.378;2023-09-19T00:23:44;64743.84;;;16.88;99.09
6833;BME280;3454;42.654;23.378;2023-09-19T00:26:10;64741.84;;;16.88;100.00
6833;BME280;3454;42.654;23.378;2023-09-19T00:28:36;64730.28;;;16.77;100.00
6833;BME280;3454;42.654;23.378;2023-09-19T00:31:02;64732.28;;;16.77;100.00
6833;BME280;3454;42.654;23.378;2023-09-19T00:33:28;64721.13;;;16.71;100.00
6833;BME280;3454;42.654;23.378;2023-09-19T00:35:57;64733.94;;;16.78;100.00
6833;BME280;3454;42.654;23.378;2023-09-19T00:38:23;64717.97;;;16.64;100.00
6833;BME280;3454;42.654;23.378;2023-09-19T00:40:53;64720.19;;;16.66;100.00
6833;BME280;3454;42.654;23.378;2023-09-19T00:43:22;64716.53;;;16.65;100.00
6833;BME280;3454;42.654;23.378;2023-09-19T00:45:51;64729.19;;;16.76;100.00
6833;BME280;3454;42.654;23.378;2023-09-19T00:48:21;64714.88;;;16.63;100.00
6833;BME280;3454;42.654;23.378;2023-09-19T00:50:50;64721.47;;;16.69;100.00
6833;BME280;3454;42.654;23.378;2023-09-19T00:53:20;64712.66;;;16.61;100.00
6833;BME280;3454;42.654;23.378;2023-09-19T00:55:48;64693.72;;;16.42;100.00
6833;BME280;3454;42.654;23.378;2023-09-19T00:58:17;64678.50;;;16.30;100.00
6833;BME280;3454;42.654;23.378;2023-09-19T01:00:43;64677.75;;;16.27;100.00
6833;BME280;3454;42.654;23.378;2023-09-19T01:03:10;64692.84;;;16.43;100.00
6833;BME280;3454;42.654;23.378;2023-09-19T01:05:38;64695.94;;;16.44;100.00
6833;BME280;3454;42.654;23.378;2023-09-19T01:08:04;64684.03;;;16.35;100.00
6833;BME280;3454;42.654;23.378;2023-09-19T01:10:33;64690.06;;;16.41;100.00
6833;BME280;3454;42.654;23.378;2023-09-19T01:13:11;64698.91;;;16.49;100.00
6833;BME280;3454;42.654;23.378;2023-09-19T01:18:52;64690.06;;;16.41;100.00
6833;BME280;3454;42.654;23.378;2023-09-19T01:21:27;64714.31;;;16.63;100.00
6833;BME280;3454;42.654;23.378;2023-09-19T01:32:05;64680.53;;;16.30;100.00
6833;BME280;3454;42.654;23.378;2023-09-19T01:35:03;64675.22;;;16.27;100.00
6833;BME280;3454;42.654;23.378;2023-09-19T01:37:31;64671.03;;;16.26;100.00
6833;BME280;3454;42.654;23.378;2023-09-19T01:40:08;64679.06;;;16.31;100.00
6833;BME280;3454;42.654;23.378;2023-09-19T01:42:50;64662.00;;;16.15;100.00
6833;BME280;3454;42.654;23.378;2023-09-19T01:47:54;64662.00;;;16.15;100.00
6833;BME280;3454;42.654;23.378;2023-09-19T01:53:04;64658.69;;;16.12;100.00
6833;BME280;3454;42.654;23.378;2023-09-19T01:55:37;64669.72;;;16.22;100.00
6833;BME280;3454;42.654;23.378;2023-09-19T01:58:16;64670.06;;;16.20;100.00
6833;BME280;3454;42.654;23.378;2023-09-19T02:00:48;64654.31;;;16.08;100.00
6833;BME280;3454;42.654;23.378;2023-09-19T02:03:19;64661.25;;;16.12;100.00
6833;BME280;3454;42.654;23.378;2023-09-19T02:05:51;64669.19;;;16.22;100.00
6833;BME280;3454;42.654;23.378;2023-09-19T02:08:19;64647.50;;;16.00;100.00
6833;BME280;3454;42.654;23.378;2023-09-19T02:10:45;64635.59;;;15.91;100.00
6833;BME280;3454;42.654;23.378;2023-09-19T02:13:19;64666.97;;;16.20;100.00
6833;BME280;3454;42.654;23.378;2023-09-19T02:15:46;64669.72;;;16.22;100.00
6833;BME280;3454;42.654;23.378;2023-09-19T02:18:12;64666.00;;;16.14;100.00
6833;BME280;3454;42.654;23.378;2023-09-19T02:20:39;64662.34;;;16.13;100.00
6833;BME280;3454;42.654;23.378;2023-09-19T02:23:05;64653.22;;;16.07;100.00
6833;BME280;3454;42.654;23.378;2023-09-19T02:25:31;64662.34;;;16.13;100.00
6833;BME280;3454;42.654;23.378;2023-09-19T02:27:57;64655.19;;;16.07;100.00
6833;BME280;3454;42.654;23.378;2023-09-19T02:30:24;64641.31;;;15.98;100.00
6833;BME280;3454;42.654;23.378;2023-09-19T02:32:57;64631.19;;;15.87;100.00
6833;BME280;3454;42.654;23.378;2023-09-19T02:35:23;64625.16;;;15.81;100.00
6833;BME280;3454;42.654;23.378;2023-09-19T02:37:50;64633.97;;;15.89;100.00
6833;BME280;3454;42.654;23.378;2023-09-19T02:40:17;64638.91;;;15.94;100.00
6833;BME280;3454;42.654;23.378;2023-09-19T02:42:48;64640.56;;;15.95;100.00
6833;BME280;3454;42.654;23.378;2023-09-19T02:45:19;64629.56;;;15.85;100.00
6833;BME280;3454;42.654;23.378;2023-09-19T02:47:46;64627.34;;;15.83;100.00
6833;BME280;3454;42.654;23.378;2023-09-19T02:50:13;64662.91;;;16.14;100.00
6833;BME280;3454;42.654;23.378;2023-09-19T02:52:45;64647.69;;;16.02;100.00
6833;BME280;3454;42.654;23.378;2023-09-19T02:55:17;64628.44;;;15.84;100.00
6833;BME280;3454;42.654;23.378;2023-09-19T02:57:53;64614.16;;;15.71;100.00
6833;BME280;3454;42.654;23.378;2023-09-19T03:00:21;64621.28;;;15.78;100.00
6833;BME280;3454;42.654;23.378;2023-09-19T03:02:54;64631.53;;;15.85;100.00
6833;BME280;3454;42.654;23.378;2023-09-19T03:05:22;64624.94;;;15.79;100.00
6833;BME280;3454;42.654;23.378;2023-09-19T03:07:52;64624.38;;;15.78;100.00
6833;BME280;3454;42.654;23.378;2023-09-19T03:10:21;64627.88;;;15.84;100.00
6833;BME280;3454;42.654;23.378;2023-09-19T03:12:47;64636.34;;;15.94;100.00
6833;BME280;3454;42.654;23.378;2023-09-19T03:15:14;64655.06;;;16.11;100.00
6833;BME280;3454;42.654;23.378;2023-09-19T03:17:44;64648.81;;;16.03;100.00
6833;BME280;3454;42.654;23.378;2023-09-19T03:20:11;64636.69;;;15.92;100.00
6833;BME280;3454;42.654;23.378;2023-09-19T03:22:38;64608.09;;;15.66;100.00
6833;BME280;3454;42.654;23.378;2023-09-19T03:25:06;64619.31;;;15.78;100.00
6833;BME280;3454;42.654;23.378;2023-09-19T03:27:36;64629.56;;;15.85;100.00
6833;BME280;3454;42.654;23.378;2023-09-19T03:30:09;64636.16;;;15.91;100.00
6833;BME280;3454;42.654;23.378;2023-09-19T03:32:35;64622.75;;;15.77;100.00
6833;BME280;3454;42.654;23.378;2023-09-19T03:35:02;64607.00;;;15.65;100.00
6833;BME280;3454;42.654;23.378;2023-09-19T03:37:31;64613.25;;;15.73;100.00
6833;BME280;3454;42.654;23.378;2023-09-19T03:39:57;64613.03;;;15.70;100.00
6833;BME280;3454;42.654;23.378;2023-09-19T03:42:22;64595.44;;;15.54;100.00
6833;BME280;3454;42.654;23.378;2023-09-19T03:44:51;64593.94;;;15.48;100.00
6833;BME280;3454;42.654;23.378;2023-09-19T03:47:17;64597.09;;;15.56;100.00
6833;BME280;3454;42.654;23.378;2023-09-19T03:49:45;64585.88;;;15.43;100.00
6833;BME280;3454;42.654;23.378;2023-09-19T03:52:11;64596.00;;;15.55;100.00
6833;BME280;3454;42.654;23.378;2023-09-19T03:54:37;64591.59;;;15.51;100.00
6833;BME280;3454;42.654;23.378;2023-09-19T03:57:03;64624.59;;;15.81;100.00
6833;BME280;3454;42.654;23.378;2023-09-19T03:59:29;64615.59;;;15.70;100.00
6833;BME280;3454;42.654;23.378;2023-09-19T04:01:55;64601.69;;;15.62;100.00
6833;BME280;3454;42.654;23.378;2023-09-19T04:04:23;64635.59;;;15.91;100.00
6833;BME280;3454;42.654;23.378;2023-09-19T04:06:51;64644.75;;;15.97;100.00
6833;BME280;3454;42.654;23.378;2023-09-19T04:09:17;64624.94;;;15.79;100.00
6833;BME280;3454;42.654;23.378;2023-09-19T04:11:43;64644.97;;;16.00;100.00
6833;BME280;3454;42.654;23.378;2023-09-19T04:14:09;64643.28;;;15.98;100.00
6833;BME280;3454;42.654;23.378;2023-09-19T04:16:34;64616.47;;;15.69;100.00
6833;BME280;3454;42.654;23.378;2023-09-19T04:19:01;64613.25;;;15.73;100.00
6833;BME280;3454;42.654;23.378;2023-09-19T04:21:26;64611.06;;;15.71;100.00
6833;BME280;3454;42.654;23.378;2023-09-19T04:23:53;64592.69;;;15.52;100.00
6833;BME280;3454;42.654;23.378;2023-09-19T04:26:19;64600.41;;;15.59;100.00
6833;BME280;3454;42.654;23.378;2023-09-19T04:28:45;64612.81;;;15.68;100.00
6833;BME280;3454;42.654;23.378;2023-09-19T04:31:11;64622.41;;;15.79;100.00
6833;BME280;3454;42.654;23.378;2023-09-19T04:33:39;64640.00;;;15.95;100.00
6833;BME280;3454;42.654;23.378;2023-09-19T04:36:05;64645.84;;;15.98;100.00
6833;BME280;3454;42.654;23.378;2023-09-19T04:38:33;64622.97;;;15.79;100.00
6833;BME280;3454;42.654;23.378;2023-09-19T04:40:58;64645.50;;;16.00;100.00
6833;BME280;3454;42.654;23.378;2023-09-19T04:43:24;64619.44;;;15.74;100.00
6833;BME280;3454;42.654;23.378;2023-09-19T04:45:50;64601.16;;;15.62;100.00
6833;BME280;3454;42.654;23.378;2023-09-19T04:48:16;64637.03;;;15.90;100.00
6833;BME280;3454;42.654;23.378;2023-09-19T04:50:41;64675.56;;;16.25;100.00
6833;BME280;3454;42.654;23.378;2023-09-19T04:53:08;64682.16;;;16.31;100.00
6833;BME280;3454;42.654;23.378;2023-09-19T04:55:33;64682.56;;;16.36;100.00
6833;BME280;3454;42.654;23.378;2023-09-19T04:57:59;64684.38;;;16.33;100.00
6833;BME280;3454;42.654;23.378;2023-09-19T05:00:25;64703.09;;;16.50;100.00
6833;BME280;3454;42.654;23.378;2023-09-19T05:02:55;64703.31;;;16.53;100.00
6833;BME280;3454;42.654;23.378;2023-09-19T05:05:23;64690.06;;;16.41;100.00
6833;BME280;3454;42.654;23.378;2023-09-19T05:07:51;64706.06;;;16.55;100.00
6833;BME280;3454;42.654;23.378;2023-09-19T05:10:19;64694.69;;;16.47;100.00
6833;BME280;3454;42.654;23.378;2023-09-19T05:12:45;64693.19;;;16.41;100.00
6833;BME280;3454;42.654;23.378;2023-09-19T05:15:14;64686.44;;;16.40;100.00
6833;BME280;3454;42.654;23.378;2023-09-19T05:17:47;64713.00;;;16.59;100.00
6833;BME280;3454;42.654;23.378;2023-09-19T05:20:14;64739.09;;;16.86;100.00
6833;BME280;3454;42.654;23.378;2023-09-19T05:22:41;64726.44;;;16.74;100.00
6833;BME280;3454;42.654;23.378;2023-09-19T05:25:09;64735.81;;;16.83;100.00
6833;BME280;3454;42.654;23.378;2023-09-19T05:27:35;64763.34;;;17.08;100.00
6833;BME280;3454;42.654;23.378;2023-09-19T05:30:01;64755.06;;;17.00;100.00
6833;BME280;3454;42.654;23.378;2023-09-19T05:32:26;64731.94;;;16.79;100.00
6833;BME280;3454;42.654;23.378;2023-09-19T05:34:51;64718.16;;;16.66;100.00
6833;BME280;3454;42.654;23.378;2023-09-19T05:37:19;64741.31;;;16.88;100.00
6833;BME280;3454;42.654;23.378;2023-09-19T05:39:45;64776.00;;;17.19;100.00
6833;BME280;3454;42.654;23.378;2023-09-19T05:42:10;64776.56;;;17.20;100.00
6833;BME280;3454;42.654;23.378;2023-09-19T05:44:36;64768.84;;;17.13;100.00
6833;BME280;3454;42.654;23.378;2023-09-19T05:47:03;64779.88;;;17.23;100.00
6833;BME280;3454;42.654;23.378;2023-09-19T05:49:29;64792.88;;;17.32;100.00
6833;BME280;3454;42.654;23.378;2023-09-19T05:51:54;64804.09;;;17.45;100.00
6833;BME280;3454;42.654;23.378;2023-09-19T05:54:22;64809.94;;;17.48;100.00
6833;BME280;3454;42.654;23.378;2023-09-19T05:56:47;64814.03;;;17.54;100.00
6833;BME280;3454;42.654;23.378;2023-09-19T05:59:14;64813.28;;;17.51;100.00
6833;BME280;3454;42.654;23.378;2023-09-19T06:01:42;64825.06;;;17.64;100.00
6833;BME280;3454;42.654;23.378;2023-09-19T06:04:08;64820.09;;;17.59;100.00
6833;BME280;3454;42.654;23.378;2023-09-19T06:06:34;64830.56;;;17.69;100.00
6833;BME280;3454;42.654;23.378;2023-09-19T06:09:08;64828.56;;;17.70;100.00
6833;BME280;3454;42.654;23.378;2023-09-19T06:11:35;64838.28;;;17.76;100.00
6833;BME280;3454;42.654;23.378;2023-09-19T06:14:02;64850.41;;;17.87;100.00
6833;BME280;3454;42.654;23.378;2023-09-19T06:16:28;64865.28;;;18.01;100.00
6833;BME280;3454;42.654;23.378;2023-09-19T06:18:55;64855.91;;;17.92;100.00
6833;BME280;3454;42.654;23.378;2023-09-19T06:21:22;64851.94;;;17.93;100.00
6833;BME280;3454;42.654;23.378;2023-09-19T06:23:49;64862.53;;;17.98;100.00
6833;BME280;3454;42.654;23.378;2023-09-19T06:26:14;64881.63;;;18.13;99.58
6833;BME280;3454;42.654;23.378;2023-09-19T06:28:40;64884.41;;;18.16;99.88
6833;BME280;3454;42.654;23.378;2023-09-19T06:31:06;64886.44;;;18.22;100.00
6833;BME280;3454;42.654;23.378;2023-09-19T06:33:35;64885.34;;;18.21;100.00
6833;BME280;3454;42.654;23.378;2023-09-19T06:36:05;64892.31;;;18.25;100.00
6833;BME280;3454;42.654;23.378;2023-09-19T06:38:32;64932.59;;;18.62;97.15
6833;BME280;3454;42.654;23.378;2023-09-19T06:40:59;64933.34;;;18.65;97.69
6833;BME280;3454;42.654;23.378;2023-09-19T06:43:27;64942.31;;;18.69;97.55
6833;BME280;3454;42.654;23.378;2023-09-19T06:45:56;64946.03;;;18.77;96.51
6833;BME280;3454;42.654;23.378;2023-09-19T06:48:22;64960.16;;;18.87;95.53
6833;BME280;3454;42.654;23.378;2023-09-19T06:50:50;64950.78;;;18.79;96.59
6833;BME280;3454;42.654;23.378;2023-09-19T06:53:16;64951.56;;;18.82;96.29
6833;BME280;3454;42.654;23.378;2023-09-19T06:55:42;64942.88;;;18.69;95.62
6833;BME280;3454;42.654;23.378;2023-09-19T06:58:09;64915.16;;;18.49;95.86
6833;BME280;3454;42.654;23.378;2023-09-19T07:00:37;64909.63;;;18.43;98.48
6833;BME280;3454;42.654;23.378;2023-09-19T07:03:08;64928.38;;;18.61;99.36
6833;BME280;3454;42.654;23.378;2023-09-19T07:05:37;64956.31;;;18.84;95.58
6833;BME280;3454;42.654;23.378;2023-09-19T07:08:05;64981.69;;;19.07;93.81
6833;BME280;3454;42.654;23.378;2023-09-19T07:10:33;64953.00;;;18.81;94.79
6833;BME280;3454;42.654;23.378;2023-09-19T07:12:59;64964.03;;;18.91;93.56
6833;BME280;3454;42.654;23.378;2023-09-19T07:15:28;64986.66;;;19.11;92.83
6833;BME280;3454;42.654;23.378;2023-09-19T07:17:56;64997.34;;;19.23;93.32
6833;BME280;3454;42.654;23.378;2023-09-19T07:20:23;65016.69;;;19.41;91.68
6833;BME280;3454;42.654;23.378;2023-09-19T07:22:55;65005.97;;;19.29;92.14
6833;BME280;3454;42.654;23.378;2023-09-19T07:25:21;65016.28;;;19.36;92.20
6833;BME280;3454;42.654;23.378;2023-09-19T07:27:48;65030.31;;;19.51;91.72
6833;BME280;3454;42.654;23.378;2023-09-19T07:30:14;65041.88;;;19.62;90.96
6833;BME280;3454;42.654;23.378;2023-09-19T07:32:41;65030.31;;;19.51;90.51
6833;BME280;3454;42.654;23.378;2023-09-19T07:35:07;65027.53;;;19.49;90.83
6833;BME280;3454;42.654;23.378;2023-09-19T07:37:34;65059.53;;;19.78;87.93
6833;BME280;3454;42.654;23.378;2023-09-19T07:40:03;65091.59;;;20.07;87.98
6833;BME280;3454;42.654;23.378;2023-09-19T07:42:36;65081.84;;;20.00;88.28
6833;BME280;3454;42.654;23.378;2023-09-19T07:45:04;65069.50;;;19.87;87.23
6833;BME280;3454;42.654;23.378;2023-09-19T07:47:30;65025.53;;;19.49;88.88
6833;BME280;3454;42.654;23.378;2023-09-19T07:49:58;65061.63;;;19.84;86.84
6833;BME280;3454;42.654;23.378;2023-09-19T07:52:26;65080.75;;;19.99;86.61
6833;BME280;3454;42.654;23.378;2023-09-19T07:54:54;65078.34;;;19.95;85.98
6833;BME280;3454;42.654;23.378;2023-09-19T07:57:20;65087.38;;;20.05;85.24
6833;BME280;3454;42.654;23.378;2023-09-19T07:59:46;65103.41;;;20.20;82.26
6833;BME280;3454;42.654;23.378;2023-09-19T08:02:11;65065.81;;;19.86;84.48
6833;BME280;3454;42.654;23.378;2023-09-19T08:04:44;65069.69;;;19.89;84.89
6833;BME280;3454;42.654;23.378;2023-09-19T08:07:11;65108.72;;;20.23;84.66
6833;BME280;3454;42.654;23.378;2023-09-19T08:09:37;65142.63;;;20.56;84.80
6833;BME280;3454;42.654;23.378;2023-09-19T08:12:05;65150.91;;;20.63;80.76
6833;BME280;3454;42.654;23.378;2023-09-19T08:14:33;65150.00;;;20.65;80.95
6833;BME280;3454;42.654;23.378;2023-09-19T08:16:59;65144.84;;;20.58;79.24
6833;BME280;3454;42.654;23.378;2023-09-19T08:19:26;65133.81;;;20.48;79.22
6833;BME280;3454;42.654;23.378;2023-09-19T08:21:58;65129.38;;;20.44;80.38
6833;BME280;3454;42.654;23.378;2023-09-19T08:24:29;65119.78;;;20.33;79.54
6833;BME280;3454;42.654;23.378;2023-09-19T08:26:55;65128.63;;;20.41;79.67
6833;BME280;3454;42.654;23.378;2023-09-19T08:29:22;65134.16;;;20.46;79.87
6833;BME280;3454;42.654;23.378;2023-09-19T08:31:56;65149.28;;;20.62;80.04
6833;BME280;3454;42.654;23.378;2023-09-19T08:34:25;65160.88;;;20.72;78.07
6833;BME280;3454;42.654;23.378;2023-09-19T08:36:55;65156.47;;;20.68;80.65
6833;BME280;3454;42.654;23.378;2023-09-19T08:39:24;65187.94;;;20.97;79.74
6833;BME280;3454;42.654;23.378;2023-09-19T08:42:00;65212.84;;;21.20;78.90
6833;BME280;3454;42.654;23.378;2023-09-19T08:44:28;65249.72;;;21.51;77.11
6833;BME280;3454;42.654;23.378;2023-09-19T08:47:16;65268.50;;;21.68;72.93
6833;BME280;3454;42.654;23.378;2023-09-19T08:50:11;65258.75;;;21.61;72.48
6833;BME280;3454;42.654;23.378;2023-09-19T08:52:43;65289.94;;;21.92;73.09
6833;BME280;3454;42.654;23.378;2023-09-19T08:55:13;65318.53;;;22.16;75.49
6833;BME280;3454;42.654;23.378;2023-09-19T08:57:47;65336.78;;;22.32;72.95
6833;BME280;3454;42.654;23.378;2023-09-19T09:00:15;65329.03;;;22.25;68.52
6833;BME280;3454;42.654;23.378;2023-09-19T09:02:43;65331.25;;;22.27;69.44
6833;BME280;3454;42.654;23.378;2023-09-19T09:05:11;65345.63;;;22.40;70.48
6833;BME280;3454;42.654;23.378;2023-09-19T09:07:38;65337.69;;;22.31;68.19
6833;BME280;3454;42.654;23.378;2023-09-19T09:10:06;65334.03;;;22.30;69.35
6833;BME280;3454;42.654;23.378;2023-09-19T09:12:33;65326.28;;;22.23;68.57
6833;BME280;3454;42.654;23.378;2023-09-19T09:15:02;65300.81;;;22.00;71.04
6833;BME280;3454;42.654;23.378;2023-09-19T09:17:29;65282.69;;;21.79;73.24
6833;BME280;3454;42.654;23.378;2023-09-19T09:19:55;65317.41;;;22.15;71.67
6833;BME280;3454;42.654;23.378;2023-09-19T09:22:22;65344.53;;;22.39;70.99
6833;BME280;3454;42.654;23.378;2023-09-19T09:24:57;65382.75;;;22.74;68.83
6833;BME280;3454;42.654;23.378;2023-09-19T09:27:24;65417.63;;;23.06;67.10
6833;BME280;3454;42.654;23.378;2023-09-19T09:29:54;65403.44;;;22.95;66.00
6833;BME280;3454;42.654;23.378;2023-09-19T09:32:26;65408.78;;;22.98;68.81
6833;BME280;3454;42.654;23.378;2023-09-19T09:34:58;65433.72;;;23.20;65.16
6833;BME280;3454;42.654;23.378;2023-09-19T09:37:27;65448.13;;;23.33;66.54
6833;BME280;3454;42.654;23.378;2023-09-19T09:39:58;65474.91;;;23.60;66.62
6833;BME280;3454;42.654;23.378;2023-09-19T09:42:39;65488.56;;;23.70;63.49
6833;BME280;3454;42.654;23.378;2023-09-19T09:45:22;65505.22;;;23.85;64.27
6833;BME280;3454;42.654;23.378;2023-09-19T09:48:04;65477.69;;;23.63;64.38
6833;BME280;3454;42.654;23.378;2023-09-19T09:50:47;65492.09;;;23.76;64.25
6833;BME280;3454;42.654;23.378;2023-09-19T09:53:29;65420.41;;;23.08;64.87
6833;BME280;3454;42.654;23.378;2023-09-19T09:58:28;65502.63;;;23.85;63.26
6833;BME280;3454;42.654;23.378;2023-09-19T10:01:05;65551.97;;;24.30;60.67
6833;BME280;3454;42.654;23.378;2023-09-19T10:03:43;65589.50;;;24.62;59.14
6833;BME280;3454;42.654;23.378;2023-09-19T10:06:14;65492.44;;;23.74;60.38
6833;BME280;3454;42.654;23.378;2023-09-19T10:09:05;65535.91;;;24.15;60.31
6833;BME280;3454;42.654;23.378;2023-09-19T10:12:06;65547.88;;;24.24;58.61
6833;BME280;3454;42.654;23.378;2023-09-19T10:14:37;65553.44;;;24.29;59.94
6833;BME280;3454;42.654;23.378;2023-09-19T10:17:05;65540.69;;;24.17;59.88
6833;BME280;3454;42.654;23.378;2023-09-19T10:19:42;65540.13;;;24.17;59.84
6833;BME280;3454;42.654;23.378;2023-09-19T10:22:16;65537.91;;;24.15;63.28
6833;BME280;3454;42.654;23.378;2023-09-19T10:24:49;65525.72;;;24.04;61.37
6833;BME280;3454;42.654;23.378;2023-09-19T10:27:19;65506.88;;;23.87;60.92
6833;BME280;3454;42.654;23.378;2023-09-19T10:29:49;65493.56;;;23.75;60.52
6833;BME280;3454;42.654;23.378;2023-09-19T10:32:21;65505.38;;;23.88;61.91
6833;BME280;3454;42.654;23.378;2023-09-19T10:34:49;65513.72;;;23.95;60.13
6833;BME280;3454;42.654;23.378;2023-09-19T10:37:16;65517.94;;;23.97;61.76
6833;BME280;3454;42.654;23.378;2023-09-19T10:39:49;65523.16;;;24.04;60.10
6833;BME280;3454;42.654;23.378;2023-09-19T10:42:19;65540.69;;;24.17;59.34
6833;BME280;3454;42.654;23.378;2023-09-19T10:44:46;65529.06;;;24.07;59.47
6833;BME280;3454;42.654;23.378;2023-09-19T10:47:20;65521.81;;;24.00;59.92
6833;BME280;3454;42.654;23.378;2023-09-19T10:49:48;65493.56;;;23.75;60.76
6833;BME280;3454;42.654;23.378;2023-09-19T10:52:22;65469.53;;;23.51;62.33
6833;BME280;3454;42.654;23.378;2023-09-19T10:54:52;65468.06;;;23.52;61.89
6833;BME280;3454;42.654;23.378;2023-09-19T10:57:23;65455.88;;;23.41;61.40
6833;BME280;3454;42.654;23.378;2023-09-19T11:00:06;65439.22;;;23.25;61.66
6833;BME280;3454;42.654;23.378;2023-09-19T11:03:24;65467.31;;;23.49;62.66
6833;BME280;3454;42.654;23.378;2023-09-19T11:06:16;65446.47;;;23.32;64.49
6833;BME280;3454;42.654;23.378;2023-09-19T11:11:50;65517.59;;;23.99;62.56
6833;BME280;3454;42.654;23.378;2023-09-19T11:30:31;65575.25;;;24.51;62.58
6833;BME280;3454;42.654;23.378;2023-09-19T11:33:29;65571.19;;;24.45;62.20
6833;BME280;3454;42.654;23.378;2023-09-19T11:36:16;65583.94;;;24.57;59.77
6833;BME280;3454;42.654;23.378;2023-09-19T11:46:54;65571.19;;;24.45;59.30
6833;BME280;3454;42.654;23.378;2023-09-19T11:49:28;65580.06;;;24.53;59.04
6833;BME280;3454;42.654;23.378;2023-09-19T11:52:02;65588.56;;;24.63;57.81
6833;BME280;3454;42.654;23.378;2023-09-19T11:54:35;65647.41;;;25.17;57.55
6833;BME280;3454;42.654;23.378;2023-09-19T11:57:05;65616.69;;;24.86;57.14
6833;BME280;3454;42.654;23.378;2023-09-19T11:59:38;65575.25;;;24.51;58.56
6833;BME280;3454;42.654;23.378;2023-09-19T12:02:08;65564.53;;;24.39;59.40
6833;BME280;3454;42.654;23.378;2023-09-19T12:04:42;65557.31;;;24.33;59.62
6833;BME280;3454;42.654;23.378;2023-09-19T12:07:17;65618.00;;;24.90;57.63
6833;BME280;3454;42.654;23.378;2023-09-19T12:10:04;65693.28;;;25.56;57.95
6833;BME280;3454;42.654;23.378;2023-09-19T12:12:34;65745.66;;;26.06;56.43
6833;BME280;3454;42.654;23.378;2023-09-19T12:15:00;65721.59;;;25.82;54.50
6833;BME280;3454;42.654;23.378;2023-09-19T12:17:40;65739.38;;;25.98;54.29
6833;BME280;3454;42.654;23.378;2023-09-19T12:20:08;65768.44;;;26.26;52.54
6833;BME280;3454;42.654;23.378;2023-09-19T12:22:43;65861.81;;;27.11;51.84
6833;BME280;3454;42.654;23.378;2023-09-19T12:25:10;65895.38;;;27.43;50.45
6833;BME280;3454;42.654;23.378;2023-09-19T12:27:49;65866.06;;;27.12;50.33
6833;BME280;3454;42.654;23.378;2023-09-19T12:30:18;65919.47;;;27.61;50.29
6833;BME280;3454;42.654;23.378;2023-09-19T12:32:46;65985.84;;;28.23;49.66
6833;BME280;3454;42.654;23.378;2023-09-19T12:35:28;65994.38;;;28.33;46.94
6833;BME280;3454;42.654;23.378;2023-09-19T12:37:56;66043.19;;;28.75;46.72
6833;BME280;3454;42.654;23.378;2023-09-19T12:40:22;66072.69;;;29.01;46.42
6833;BME280;3454;42.654;23.378;2023-09-19T12:42:53;66113.91;;;29.39;44.64
6833;BME280;3454;42.654;23.378;2023-09-19T12:45:20;66118.00;;;29.45;44.57
6833;BME280;3454;42.654;23.378;2023-09-19T12:48:18;66134.88;;;29.55;46.23
6833;BME280;3454;42.654;23.378;2023-09-19T12:53:36;66154.22;;;29.77;44.50
6833;BME280;3454;42.654;23.378;2023-09-19T12:56:11;66177.03;;;29.98;43.26
6833;BME280;3454;42.654;23.378;2023-09-19T12:58:51;66179.09;;;29.98;44.35
6833;BME280;3454;42.654;23.378;2023-09-19T13:01:24;66211.97;;;30.27;44.24
6833;BME280;3454;42.654;23.378;2023-09-19T13:04:12;66184.66;;;30.03;42.42
6833;BME280;3454;42.654;23.378;2023-09-19T13:06:38;66189.31;;;30.09;42.41
6833;BME280;3454;42.654;23.378;2023-09-19T13:09:11;66187.28;;;30.03;43.19
6833;BME280;3454;42.654;23.378;2023-09-19T13:11:46;66204.16;;;30.20;42.61
6833;BME280;3454;42.654;23.378;2023-09-19T13:14:24;66158.50;;;29.79;41.67
6833;BME280;3454;42.654;23.378;2023-09-19T13:19:40;66134.50;;;29.57;43.51
6833;BME280;3454;42.654;23.378;2023-09-19T13:22:38;66146.41;;;29.70;43.57
6833;BME280;3454;42.654;23.378;2023-09-19T13:25:09;66151.81;;;29.73;43.92
6833;BME280;3454;42.654;23.378;2023-09-19T13:27:42;66195.44;;;30.15;43.82
6833;BME280;3454;42.654;23.378;2023-09-19T13:30:08;66208.06;;;30.24;43.72
6833;BME280;3454;42.654;23.378;2023-09-19T13:32:34;66229.81;;;30.43;42.60
6833;BME280;3454;42.654;23.378;2023-09-19T13:35:00;66235.59;;;30.51;43.11
6833;BME280;3454;42.654;23.378;2023-09-19T13:37:25;66170.38;;;29.92;42.16
6833;BME280;3454;42.654;23.378;2023-09-19T13:39:52;66105.53;;;29.31;42.85
6833;BME280;3454;42.654;23.378;2023-09-19T13:42:17;66166.28;;;29.86;42.64
6833;BME280;3454;42.654;23.378;2023-09-19T13:44:44;66165.19;;;29.85;42.69
6833;BME280;3454;42.654;23.378;2023-09-19T13:47:09;66180.22;;;29.99;43.43
6833;BME280;3454;42.654;23.378;2023-09-19T13:49:37;66161.44;;;29.84;43.00
6833;BME280;3454;42.654;23.378;2023-09-19T13:52:03;66179.09;;;29.98;43.15
6833;BME280;3454;42.654;23.378;2023-09-19T13:54:30;66201.75;;;30.16;42.96
6833;BME280;3454;42.654;23.378;2023-09-19T13:56:56;66201.03;;;30.20;42.10
6833;BME280;3454;42.654;23.378;2023-09-19T13:59:21;66184.66;;;30.03;40.98
6833;BME280;3454;42.654;23.378;2023-09-19T14:01:49;66185.03;;;30.01;41.86
6833;BME280;3454;42.654;23.378;2023-09-19T14:04:15;66146.56;;;29.66;43.55
6833;BME280;3454;42.654;23.378;2023-09-19T14:06:42;66110.56;;;29.36;44.76
6833;BME280;3454;42.654;23.378;2023-09-19T14:09:09;66107.22;;;29.33;43.41
6833;BME280;3454;42.654;23.378;2023-09-19T14:11:42;66141.56;;;29.61;43.28